N.dadayli — TCCW7 — position and weather

sailwx.info

Track history (hours):
 
Tides and Currents Weather Stations Pressure Air Temp Water Temp Dewpoint Dewpoint Depression Visibility Wind Speed Wind Dir Waves Ship Positions

N.dadayli

Last reported at 2016-Dec-03 04:33 UTC. Time now 2016-Dec-03 04:43 UTC.
Position N 45°28' E 012°14'.

Length 101 m; draft 4.8 m.

Type: Cargo ship. MMSI: 271000768.

Date/timePositionNaut miles runAvg speedWind from/ knotsBaromVisibWave heightAir tempDewpointWater temp
2016-Dec-03 04:33N 45°28' E 012°14'0 0.0
2016-Dec-03 03:33N 45°28' E 012°14'0 0.0
2016-Dec-03 02:33N 45°28' E 012°14'0 0.0
2016-Dec-03 01:33N 45°28' E 012°14'0 0.0
2016-Dec-03 00:31N 45°28' E 012°14'0 0.0
2016-Dec-02 23:31N 45°28' E 012°14'0 0.0
2016-Dec-02 22:31N 45°28' E 012°14'0 0.0
2016-Dec-02 21:31N 45°28' E 012°14'0 0.0
2016-Dec-02 20:28N 45°28' E 012°14'0 0.0
2016-Dec-02 19:31N 45°28' E 012°14'0 0.0
2016-Dec-02 18:28N 45°28' E 012°14'0 0.0
2016-Dec-02 17:28N 45°28' E 012°14'0 0.0
2016-Dec-02 16:31N 45°28' E 012°14'0 0.0
2016-Dec-02 15:31N 45°28' E 012°14'0 0.0
2016-Dec-02 14:28N 45°28' E 012°14'0 0.0
2016-Dec-02 13:31N 45°28' E 012°14'0 0.0
2016-Dec-02 12:25N 45°28' E 012°14'0 0.0
2016-Dec-02 11:31N 45°28' E 012°14'0 0.0
2016-Dec-02 10:31N 45°28' E 012°14'0 0.0
2016-Dec-02 09:31N 45°28' E 012°14'0 0.0
2016-Dec-02 08:28N 45°28' E 012°14'0 0.0
2016-Dec-02 07:31N 45°28' E 012°14'0 0.1
2016-Dec-02 06:25N 45°28' E 012°14'4 4.6
2016-Dec-02 05:34N 45°24' E 012°16'6 6.0
2016-Dec-02 04:32N 45°20' E 012°22'0 0.0
2016-Dec-02 03:32N 45°20' E 012°22'0 0.0
2016-Dec-02 02:32N 45°20' E 012°22'0 0.0
2016-Dec-02 01:32N 45°20' E 012°22'0 0.0
2016-Dec-02 00:32N 45°20' E 012°22'0 0.0
2016-Dec-01 23:32N 45°20' E 012°22'0 0.0
2016-Dec-01 22:32N 45°20' E 012°22'0 0.0
2016-Dec-01 21:32N 45°20' E 012°22'8 8.1
2016-Dec-01 20:33N 45°16' E 012°32'1111.3
2016-Dec-01 19:33N 45°09' E 012°45'1110.9
2016-Dec-01 18:33N 45°00' E 012°54'1110.7
2016-Dec-01 17:33N 44°51' E 012°46'1110.8
2016-Dec-01 16:33N 44°43' E 012°37'1110.5
2016-Dec-01 15:33N 44°34' E 012°28'  
2016-Nov-27 19:19N 44°31' E 012°29'0 0.0
2016-Nov-27 16:10N 44°31' E 012°29'0 0.0
2016-Nov-27 13:10N 44°31' E 012°29'0 0.0
2016-Nov-27 12:25N 44°31' E 012°29'0 0.0
2016-Nov-27 11:22N 44°31' E 012°29'0 0.0
2016-Nov-27 04:25N 44°31' E 012°29'0 0.0
2016-Nov-27 03:22N 44°31' E 012°29'0 0.0
2016-Nov-27 00:22N 44°31' E 012°29'0 0.0
2016-Nov-26 23:28N 44°31' E 012°29'0 0.0
2016-Nov-26 22:31N 44°31' E 012°29'0 0.0
2016-Nov-26 05:31N 44°31' E 012°29'0 0.0
2016-Nov-25 18:28N 44°31' E 012°29'0 0.0
2016-Nov-25 17:22N 44°31' E 012°29'0 0.0
2016-Nov-25 15:19N 44°31' E 012°29'0 0.0
2016-Nov-25 13:22N 44°31' E 012°29'0 0.0
2016-Nov-25 12:04N 44°31' E 012°29'0 0.0
2016-Nov-25 11:31N 44°31' E 012°29'0 0.0
2016-Nov-25 10:22N 44°31' E 012°29'0 0.0
2016-Nov-25 09:28N 44°31' E 012°29'0 0.0
2016-Nov-25 08:28N 44°31' E 012°29'6 0.5
2016-Nov-24 20:16N 44°29' E 012°36'2110.8
2016-Nov-24 18:20N 44°21' E 013°03'810.8
2016-Nov-24 17:33N 44°18' E 013°14'  
Track history (hours):
 
Tides and Currents Weather Stations Pressure Air Temp Water Temp Dewpoint Dewpoint Depression Visibility Wind Speed Wind Dir Waves Ship Positions

N.dadayli

Last reported at 2016-Dec-03 04:33 UTC. Time now 2016-Dec-03 04:43 UTC.
Position N 45°28' E 012°14'.

Length 101 m; draft 4.8 m.

Type: Cargo ship. MMSI: 271000768.

Date/timePositionNaut miles runAvg speedWind from/ knotsBaromVisibWave heightAir tempDewpointWater temp
2016-Dec-03 04:33N 45°28' E 012°14'0 0.0
2016-Dec-03 03:33N 45°28' E 012°14'0 0.0
2016-Dec-03 02:33N 45°28' E 012°14'0 0.0
2016-Dec-03 01:33N 45°28' E 012°14'0 0.0
2016-Dec-03 00:31N 45°28' E 012°14'0 0.0
2016-Dec-02 23:31N 45°28' E 012°14'0 0.0
2016-Dec-02 22:31N 45°28' E 012°14'0 0.0
2016-Dec-02 21:31N 45°28' E 012°14'0 0.0
2016-Dec-02 20:28N 45°28' E 012°14'0 0.0
2016-Dec-02 19:31N 45°28' E 012°14'0 0.0
2016-Dec-02 18:28N 45°28' E 012°14'0 0.0
2016-Dec-02 17:28N 45°28' E 012°14'0 0.0
2016-Dec-02 16:31N 45°28' E 012°14'0 0.0
2016-Dec-02 15:31N 45°28' E 012°14'0 0.0
2016-Dec-02 14:28N 45°28' E 012°14'0 0.0
2016-Dec-02 13:31N 45°28' E 012°14'0 0.0
2016-Dec-02 12:25N 45°28' E 012°14'0 0.0
2016-Dec-02 11:31N 45°28' E 012°14'0 0.0
2016-Dec-02 10:31N 45°28' E 012°14'0 0.0
2016-Dec-02 09:31N 45°28' E 012°14'0 0.0
2016-Dec-02 08:28N 45°28' E 012°14'0 0.0
2016-Dec-02 07:31N 45°28' E 012°14'0 0.1
2016-Dec-02 06:25N 45°28' E 012°14'4 4.6
2016-Dec-02 05:34N 45°24' E 012°16'6 6.0
2016-Dec-02 04:32N 45°20' E 012°22'0 0.0
2016-Dec-02 03:32N 45°20' E 012°22'0 0.0
2016-Dec-02 02:32N 45°20' E 012°22'0 0.0
2016-Dec-02 01:32N 45°20' E 012°22'0 0.0
2016-Dec-02 00:32N 45°20' E 012°22'0 0.0
2016-Dec-01 23:32N 45°20' E 012°22'0 0.0
2016-Dec-01 22:32N 45°20' E 012°22'0 0.0
2016-Dec-01 21:32N 45°20' E 012°22'8 8.1
2016-Dec-01 20:33N 45°16' E 012°32'1111.3
2016-Dec-01 19:33N 45°09' E 012°45'1110.9
2016-Dec-01 18:33N 45°00' E 012°54'1110.7
2016-Dec-01 17:33N 44°51' E 012°46'1110.8
2016-Dec-01 16:33N 44°43' E 012°37'1110.5
2016-Dec-01 15:33N 44°34' E 012°28'  
2016-Nov-27 19:19N 44°31' E 012°29'0 0.0
2016-Nov-27 16:10N 44°31' E 012°29'0 0.0
2016-Nov-27 13:10N 44°31' E 012°29'0 0.0
2016-Nov-27 12:25N 44°31' E 012°29'0 0.0
2016-Nov-27 11:22N 44°31' E 012°29'0 0.0
2016-Nov-27 04:25N 44°31' E 012°29'0 0.0
2016-Nov-27 03:22N 44°31' E 012°29'0 0.0
2016-Nov-27 00:22N 44°31' E 012°29'0 0.0
2016-Nov-26 23:28N 44°31' E 012°29'0 0.0
2016-Nov-26 22:31N 44°31' E 012°29'0 0.0
2016-Nov-26 05:31N 44°31' E 012°29'0 0.0
2016-Nov-25 18:28N 44°31' E 012°29'0 0.0
2016-Nov-25 17:22N 44°31' E 012°29'0 0.0
2016-Nov-25 15:19N 44°31' E 012°29'0 0.0
2016-Nov-25 13:22N 44°31' E 012°29'0 0.0
2016-Nov-25 12:04N 44°31' E 012°29'0 0.0
2016-Nov-25 11:31N 44°31' E 012°29'0 0.0
2016-Nov-25 10:22N 44°31' E 012°29'0 0.0
2016-Nov-25 09:28N 44°31' E 012°29'0 0.0
2016-Nov-25 08:28N 44°31' E 012°29'6 0.5
2016-Nov-24 20:16N 44°29' E 012°36'2110.8
2016-Nov-24 18:20N 44°21' E 013°03'810.8
2016-Nov-24 17:33N 44°18' E 013°14'  

Dump ship's entire track history